Latest Weather Observations for Mardie

IDW60801

Issued at 10:23 am WST Sunday 28 November 2021 (issued every 10 minutes, with the page automatically refreshed every 10 minutes)

About weather observations | Map of weather stations | Latest weather observations for WA | Other Formats
Station Details ID: 005008 Name: MARDIE Lat: -21.19 Lon: 115.98 Height: 11.0 m
Data from the previous 72 hours. | See also: Recent months at Mardie
Date/Time
WST
Temp
°C
App
Temp
°C
Dew
Point
°C
Rel
Hum
%
Delta-T
°C
Wind Press
QNH
hPa
Press
MSL
hPa
Rain since
9am
mm
Dir  Spd
km/h
Gust
km/h
Spd
kts
Gust
kts
28/10:05am 38.8 30.6 0.3 9 19.6 ENE 33 46 18 25 1009.2 1009.2 0.0
28/10:00am 38.8 30.8 0.3 9 19.6 ENE 32 44 17 24 1009.3 1009.3 0.0
28/09:30am 37.9 29.2 -0.4 9 19.1 E 35 44 19 24 1009.6 1009.6 0.0
28/09:00am 37.3 28.8 0.6 10 18.6 ESE 35 46 19 25 1009.8 1009.8 0.0
28/08:30am 36.4 28.3 1.2 11 17.9 ESE 33 43 18 23 1009.9 1009.9 0.0
28/08:00am 34.8 29.0 4.4 15 16.1 ESE 24 32 13 17 1010.1 1010.1 0.0
28/07:30am 33.0 30.3 9.1 23 13.5 SE 13 17 7 9 1010.2 1010.2 0.0
28/07:00am 30.5 28.9 11.5 31 11.0 SE 11 15 6 8 1010.4 1010.4 0.0
28/06:30am 28.1 27.7 12.5 38 9.1 E 6 9 3 5 1010.1 1010.1 0.0
28/06:00am 25.8 25.5 12.6 44 7.6 E 6 6 3 3 1009.7 1009.7 0.0
28/05:30am 24.5 24.6 12.8 48 6.8 ESE 4 6 2 3 1009.1 1009.1 0.0
28/05:00am 23.8 23.5 13.4 52 6.1 SSE 7 9 4 5 1008.3 1008.3 0.0
28/04:30am 24.9 24.0 13.8 50 6.5 SSE 11 13 6 7 1008.1 1008.1 0.0
28/04:00am 24.8 23.4 14.6 53 6.1 S 15 19 8 10 1007.8 1007.8 0.0
28/03:30am 23.6 23.3 14.3 56 5.5 S 9 11 5 6 1008.0 1008.0 0.0
28/03:00am 24.1 24.3 14.8 56 5.5 S 7 9 4 5 1008.2 1008.2 0.0
28/02:30am 24.6 24.9 15.0 55 5.7 S 7 9 4 5 1008.3 1008.3 0.0
28/02:00am 25.8 25.7 16.1 55 6.0 SSW 11 13 6 7 1008.3 1008.3 0.0
28/01:30am 25.6 25.2 16.2 56 5.8 SSW 13 15 7 8 1008.5 1008.5 0.0
28/01:00am 25.8 25.1 15.5 53 6.3 SSW 13 19 7 10 1008.8 1008.8 0.0
28/12:30am 25.7 24.3 13.5 46 7.2 S 13 17 7 9 1009.1 1009.1 0.0
28/12:00am 25.9 24.9 13.4 46 7.3 S 11 15 6 8 1009.2 1009.2 0.0
 
Date/Time
WST
Temp
°C
App
Temp
°C
Dew
Point
°C
Rel
Hum
%
Delta-T
°C
Wind Press
QNH
hPa
Press
MSL
hPa
Rain since
9am
mm
Dir  Spd
km/h
Gust
km/h
Spd
kts
Gust
kts
27/11:30pm 26.4 26.9 13.9 46 7.4 S 4 7 2 4 1009.3 1009.3 0.0
27/11:00pm 26.6 26.5 14.0 46 7.5 S 7 9 4 5 1009.6 1009.6 0.0
27/10:30pm 27.0 27.1 14.4 46 7.5 SSW 7 9 4 5 1009.7 1009.7 0.0
27/10:00pm 27.9 28.2 14.9 45 7.9 SSW 7 11 4 6 1009.8 1009.8 0.0
27/09:30pm 28.8 29.9 15.7 45 8.1 SW 4 17 2 9 1009.4 1009.4 0.0
27/09:00pm 28.8 28.4 14.2 40 8.8 SW 9 17 5 9 1009.4 1009.4 0.0
27/08:30pm 29.1 29.0 13.3 37 9.4 NNE 6 6 3 3 1008.9 1008.9 0.0
27/08:00pm 29.7 29.5 13.5 37 9.7 N 7 9 4 5 1008.7 1008.7 0.0
27/07:30pm 30.4 30.8 13.7 36 10.0 N 4 6 2 3 1008.4 1008.4 0.0
27/07:00pm 31.5 31.4 13.3 33 10.9 NNW 6 7 3 4 1007.8 1007.8 0.0
27/06:30pm 32.8 31.5 12.4 29 12.1 NW 11 17 6 9 1007.5 1007.5 0.0
27/06:00pm 34.0 31.7 11.8 26 13.2 N 15 22 8 12 1006.9 1006.9 0.0
27/05:30pm 34.8 32.3 11.2 23 13.9 N 15 22 8 12 1006.7 1006.7 0.0
27/05:00pm 35.6 31.8 9.2 20 15.2 N 19 28 10 15 1006.4 1006.4 0.0
27/04:30pm 36.5 31.4 7.5 17 16.3 N 24 35 13 19 1006.1 1006.1 0.0
27/04:00pm 38.0 31.9 4.8 13 18.0 N 26 39 14 21 1006.0 1006.0 0.0
27/03:30pm 37.5 31.2 5.5 14 17.5 N 28 43 15 23 1006.1 1006.1 0.0
27/03:00pm 37.6 31.4 4.5 13 17.9 N 26 39 14 21 1006.2 1006.2 0.0
27/02:30pm 38.6 33.0 5.3 13 18.2 N 24 33 13 18 1006.5 1006.5 0.0
27/02:00pm 38.6 33.0 5.3 13 18.3 N 24 35 13 19 1006.7 1006.7 0.0
27/01:30pm 38.8 33.1 6.5 14 18.0 N 26 35 14 19 1007.2 1007.2 0.0
27/01:00pm 38.5 32.7 6.3 14 17.9 N 26 39 14 21 1007.5 1007.5 0.0
27/12:30pm 39.6 34.7 4.9 12 19.0 N 20 35 11 19 1007.7 1007.7 0.0
27/12:00pm 39.9 35.0 -0.5 8 20.4 NE 15 28 8 15 1008.3 1008.3 0.0
27/11:30am 38.4 35.1 0.0 9 19.4 SE 7 19 4 10 1008.8 1008.8 0.0
27/11:00am 39.1 33.6 0.5 9 19.7 E 19 32 10 17 1009.2 1009.2 0.0
27/10:30am 39.1 33.8 1.9 10 19.4 ENE 19 32 10 17 1009.6 1009.6 0.0
27/10:00am 37.7 31.5 2.2 11 18.5 ENE 24 37 13 20 1010.0 1010.0 0.0
27/09:30am 37.5 31.7 2.1 11 18.4 ENE 22 30 12 16 1010.3 1010.3 0.0
27/09:00am 36.1 29.7 3.3 13 17.2 E 26 35 14 19 1010.4 1010.4 0.0
27/08:30am 34.6 29.3 5.1 16 15.8 E 22 30 12 16 1010.5 1010.5 0.0
27/08:00am 32.9 28.9 9.0 23 13.5 ESE 20 26 11 14 1010.6 1010.6 0.0
27/07:30am 30.4 28.1 11.9 32 10.8 ESE 15 24 8 13 1010.6 1010.6 0.0
27/07:00am 28.2 28.5 14.4 42 8.3 SE 6 9 3 5 1010.6 1010.6 0.0
27/06:30am 25.8 26.7 16.6 56 5.7 SE 7 9 4 5 1010.5 1010.5 0.0
27/06:00am 23.0 23.5 16.5 67 4.0 SE 9 11 5 6 1010.2 1010.2 0.0
27/05:30am 20.9 20.8 15.9 73 3.0 SE 11 11 6 6 1009.9 1009.9 0.0
27/05:00am 20.6 20.4 15.8 74 2.9 SE 11 11 6 6 1009.6 1009.6 0.0
27/04:30am 20.8 21.3 15.6 72 3.1 SE 7 9 4 5 1009.3 1009.3 0.0
27/04:00am 21.1 21.5 16.3 74 2.9 SE 9 11 5 6 1009.2 1009.2 0.0
27/03:30am 21.6 22.4 16.3 72 3.2 SSW 7 9 4 5 1009.0 1009.0 0.0
27/03:00am 21.6 23.2 17.0 75 2.8 SSW 4 4 2 2 1009.0 1009.0 0.0
27/02:30am 22.2 24.1 17.6 75 2.8 SSW 4 4 2 2 1009.2 1009.2 0.0
27/02:00am 22.4 24.4 17.8 75 2.9 SSW 4 6 2 3 1009.3 1009.3 0.0
27/01:30am 22.5 23.9 17.8 75 2.9 SSW 7 7 4 4 1009.7 1009.7 0.0
27/01:00am 22.9 24.7 18.2 75 2.9 SSW 6 7 3 4 1009.8 1009.8 0.0
27/12:30am 23.4 25.2 18.7 75 3.0 SSW 7 7 4 4 1010.1 1010.1 0.0
27/12:00am 24.1 26.9 19.6 76 2.9 SSW 4 6 2 3 1010.5 1010.5 0.0
 
Date/Time
WST
Temp
°C
App
Temp
°C
Dew
Point
°C
Rel
Hum
%
Delta-T
°C
Wind Press
QNH
hPa
Press
MSL
hPa
Rain since
9am
mm
Dir  Spd
km/h
Gust
km/h
Spd
kts
Gust
kts
26/11:30pm 24.2 26.4 19.5 75 3.0 SSW 7 7 4 4 1010.9 1010.9 0.0
26/11:00pm 24.5 26.7 19.6 74 3.2 SW 7 11 4 6 1011.1 1011.1 0.0
26/10:30pm 25.3 28.0 20.3 74 3.3 WSW 6 9 3 5 1011.0 1011.0 0.0
26/10:00pm 25.6 28.8 20.4 73 3.4 WSW 4 7 2 4 1010.9 1010.9 0.0
26/09:30pm 25.7 28.8 20.3 72 3.5 NW 4 6 2 3 1010.8 1010.8 0.0
26/09:00pm 26.3 29.5 20.6 71 3.7 NW 4 6 2 3 1010.5 1010.5 0.0
26/08:30pm 26.9 29.6 20.3 67 4.3 WNW 6 7 3 4 1010.3 1010.3 0.0
26/08:00pm 27.1 28.6 18.1 58 5.7 WNW 7 9 4 5 1010.1 1010.1 0.0
26/07:30pm 27.4 28.4 17.8 55 6.1 NW 9 13 5 7 1009.6 1009.6 0.0
26/07:00pm 28.1 28.9 17.3 52 6.8 NW 9 15 5 8 1009.0 1009.0 0.0
26/06:30pm 29.2 28.7 16.0 44 8.2 NNW 13 20 7 11 1008.5 1008.5 0.0
26/06:00pm 30.4 29.1 13.7 36 10.0 NNW 13 24 7 13 1008.2 1008.2 0.0
26/05:30pm 31.3 29.0 13.1 33 10.9 NNW 17 28 9 15 1008.0 1008.0 0.0
26/05:00pm 32.1 29.2 12.8 30 11.5 N 20 32 11 17 1007.7 1007.7 0.0
26/04:30pm 32.6 28.9 10.0 25 12.9 NNW 20 32 11 17 1007.5 1007.5 0.0
26/04:00pm 33.0 29.1 10.9 26 12.9 NNW 22 35 12 19 1007.4 1007.4 0.0
26/03:30pm 34.4 29.6 8.9 21 14.5 N 24 33 13 18 1007.6 1007.6 0.0
26/03:00pm 34.6 29.1 7.6 19 15.1 N 26 35 14 19 1007.4 1007.4 0.0
26/02:30pm 35.1 30.7 8.8 20 14.9 NNW 22 35 12 19 1007.9 1007.9 0.0
26/02:00pm 35.6 30.5 9.2 20 15.2 N 26 37 14 20 1007.8 1007.8 0.0
26/01:30pm 36.9 31.6 7.0 16 16.7 N 24 33 13 18 1008.2 1008.2 0.0
26/01:00pm 36.6 30.3 5.8 15 16.9 N 28 39 15 21 1008.6 1008.6 0.0
26/12:30pm 36.5 31.2 6.6 16 16.5 N 24 37 13 20 1008.8 1008.8 0.0
26/12:00pm 38.3 34.3 2.7 11 18.7 ENE 13 24 7 13 1009.3 1009.3 0.0
26/11:30am 36.9 32.5 0.3 10 18.4 ESE 13 24 7 13 1009.7 1009.7 0.0
26/11:00am 37.1 31.6 0.4 10 18.5 ENE 19 30 10 16 1010.3 1010.3 0.0
26/10:30am 36.8 30.7 0.2 10 18.3 ENE 22 32 12 17 1010.5 1010.5 0.0
26/10:00am 36.2 30.2 1.1 11 17.8 ENE 22 35 12 19 1011.0 1011.0 0.0
26/09:30am 35.7 28.5 0.7 11 17.6 NE 28 39 15 21 1011.2 1011.2 0.0
26/09:00am 34.7 27.8 2.3 13 16.6 ENE 28 37 15 20 1011.3 1011.3 0.0
26/08:30am 33.1 28.5 6.4 19 14.5 E 20 30 11 16 1011.5 1011.5 0.0
26/08:00am 31.6 27.5 8.6 24 12.8 E 20 28 11 15 1011.6 1011.6 0.0
26/07:30am 30.1 28.0 9.6 28 11.5 SSE 11 15 6 8 1011.5 1011.5 0.0
26/07:00am 28.1 27.6 12.0 36 9.3 SE 6 9 3 5 1011.1 1011.1 0.0
26/06:30am 25.7 25.9 13.2 46 7.3 SE 4 6 2 3 1011.0 1011.0 0.0
26/06:00am 22.7 22.6 14.0 58 5.1 SE 7 9 4 5 1010.9 1010.9 0.0
26/05:30am 21.0 20.5 13.7 63 4.2 SE 9 11 5 6 1010.6 1010.6 0.0
26/05:00am 21.0 20.8 13.7 63 4.2 SSE 7 9 4 5 1010.2 1010.2 0.0
26/04:30am 21.5 21.7 14.6 65 4.1 SSE 7 7 4 4 1010.2 1010.2 0.0
26/04:00am 21.7 21.7 15.1 66 3.9 SSE 9 11 5 6 1010.0 1010.0 0.0
26/03:30am 21.7 21.1 14.6 64 4.2 SSE 11 13 6 7 1009.9 1009.9 0.0
26/03:00am 21.7 21.4 14.4 63 4.3 SSE 9 9 5 5 1010.1 1010.1 0.0
26/02:30am 21.9 21.5 14.0 61 4.6 SSE 9 9 5 5 1010.2 1010.2 0.0
26/02:00am 22.8 23.3 14.9 61 4.7 N 6 6 3 3 1010.3 1010.3 0.0
26/01:30am 22.9 23.4 15.0 61 4.7 N 6 7 3 4 1010.3 1010.3 0.0
26/01:00am 22.9 23.7 14.7 60 4.9 N 4 6 2 3 1010.4 1010.4 0.0
26/12:30am 23.2 23.6 15.3 61 4.7 N 7 9 4 5 1010.6 1010.6 0.0
26/12:00am 23.6 24.2 15.4 60 4.9 N 6 7 3 4 1011.1 1011.1 0.0
 
Date/Time
WST
Temp
°C
App
Temp
°C
Dew
Point
°C
Rel
Hum
%
Delta-T
°C
Wind Press
QNH
hPa
Press
MSL
hPa
Rain since
9am
mm
Dir  Spd
km/h
Gust
km/h
Spd
kts
Gust
kts
25/11:30pm 24.2 26.1 15.7 59 5.1 CALM 0 0 0 0 1011.2 1011.2 0.0
25/11:00pm 24.9 27.1 16.6 60 5.1 CALM 0 0 0 0 1010.9 1010.9 0.0
25/10:30pm 24.9 27.0 16.3 59 5.3 CALM 0 0 0 0 1011.1 1011.1 0.0
25/10:00pm 25.6 28.2 17.5 61 5.1 CALM 0 0 0 0 1011.0 1011.0 0.0
25/09:30pm 25.6 28.2 17.5 61 5.1 CALM 0 0 0 0 1011.0 1011.0 0.0
25/09:00pm 26.4 29.6 18.8 63 4.9 CALM 0 0 0 0 1010.8 1010.8 0.0
25/08:30pm 26.5 29.8 19.1 64 4.8 CALM 0 0 0 0 1010.4 1010.4 0.0
25/08:00pm 26.5 29.8 19.1 64 4.8 CALM 0 2 0 1 1010.0 1010.0 0.0
25/07:30pm 27.2 29.2 18.8 60 5.4 NW 6 7 3 4 1009.8 1009.8 0.0
25/07:00pm 27.8 29.0 18.2 56 6.1 NNW 9 15 5 8 1009.5 1009.5 0.0
25/06:30pm 28.9 29.6 17.1 49 7.4 NNW 9 17 5 9 1009.2 1009.2 0.0
25/06:00pm 30.0 29.4 15.7 42 8.9 N 13 22 7 12 1008.7 1008.7 0.0
25/05:30pm 30.6 28.5 14.7 38 9.7 N 19 28 10 15 1008.4 1008.4 0.0
25/05:00pm 31.5 28.9 13.7 33 10.8 N 20 28 11 15 1008.1 1008.1 0.0
25/04:30pm 32.4 28.9 12.1 29 12.0 N 22 32 12 17 1008.1 1008.1 0.0
25/04:00pm 33.0 30.0 12.1 28 12.4 N 19 30 10 16 1008.0 1008.0 0.0
25/03:30pm 33.6 29.5 11.5 26 13.0 N 24 35 13 19 1008.0 1008.0 0.0
25/03:00pm 34.4 29.8 10.9 24 13.8 N 26 35 14 19 1008.0 1008.0 0.0
25/02:30pm 35.9 32.0 10.9 22 14.7 N 22 33 12 18 1008.2 1008.2 0.0
25/02:00pm 35.8 30.5 8.6 19 15.5 N 26 39 14 21 1008.5 1008.5 0.0
25/01:30pm 36.3 31.3 8.2 18 15.9 N 24 33 13 18 1008.6 1008.6 0.0
25/01:00pm 37.0 32.1 7.0 16 16.8 N 22 35 12 19 1008.9 1008.9 0.0
25/12:30pm 37.1 32.1 8.0 17 16.5 N 24 39 13 21 1009.2 1009.2 0.0
25/12:00pm 37.8 33.5 1.0 10 18.8 NNE 13 22 7 12 1009.7 1009.7 0.0
25/11:30am 38.1 31.4 1.2 10 18.9 NNE 26 39 14 21 1010.2 1010.2 0.0
25/11:00am 37.3 31.6 0.6 10 18.6 ENE 20 32 11 17 1010.4 1010.4 0.0
25/10:30am 36.4 29.8 -0.1 10 18.2 ENE 24 43 13 23 1010.8 1010.8 0.0

Other formats

Comma delimited format used in spreadsheet applications
http://www.bom.gov.au/fwo/IDW60801/IDW60801.94306.axf

JavaScript Object Notation format (JSON) in row-major order
http://www.bom.gov.au/fwo/IDW60801/IDW60801.94306.json

Data quality

Most of these data are generated automatically and are frequently updated. Quality checks on data are not normally performed. It is possible for incorrect values to appear. Refer to information at About Latest Weather Observations and please check the disclaimer before using these data.